CW1018 Tampa FL US current weather conditions

sailwx.info

Wind from 022 at 13 knots gusting 16

Air temperature 28.3° C

Last reported at 2019-May-23 23:59 UTC.
Time now 2019-May-24 00:50 UTC

Location: N 28°04' W 082°26'.
View on Google Maps.

See reports from other nearby stations

  
Tides and Currents Weather Stations Pressure Air Temp Water Temp Dewpoint Dewpoint Depression Visibility Wind Speed Wind Dir Waves Ship Positions
date/time (UTC)wind fromknots sea level pressurealtimeterstation pressurevisibilityair tempwater tempwave heightnotes
2019-May-23 23:59 022 13 gusting 16 28.3
2019-May-23 23:44 022 8 gusting 11 28.9
2019-May-23 23:29 022 11 gusting 13 28.9
2019-May-23 23:14 022 6 gusting 11 29.4
2019-May-23 22:59 180 6 gusting 11 30.0
2019-May-23 22:44 022 10 gusting 16 30.0
2019-May-23 22:29 360 6 gusting 10 30.6
2019-May-23 22:14 180 7 gusting 13 30.0
2019-May-23 21:59 180 12 gusting 19 31.1
2019-May-23 21:44 112 6 gusting 8 30.6
2019-May-23 21:29 180 9 gusting 13 31.1
2019-May-23 21:14 180 6 gusting 8 31.1
2019-May-23 20:59 337 7 gusting 12 31.7
2019-May-23 20:44 337 5 gusting 6 31.7
2019-May-23 20:29 112 5 gusting 7 31.7
2019-May-23 20:14 180 7 gusting 10 31.7
2019-May-23 19:59 180 8 gusting 11 31.7
2019-May-23 19:44 180 9 gusting 13 31.1
2019-May-23 19:29 337 7 gusting 13 31.1
2019-May-23 19:14 180 9 gusting 10 31.1
2019-May-23 18:59 022 9 gusting 12 31.1
2019-May-23 18:44 360 5 gusting 8 30.6
2019-May-23 18:29 022 10 gusting 13 30.6
2019-May-23 18:14 180 7 gusting 13 30.6
2019-May-23 17:59 180 9 gusting 14 30.6
2019-May-23 17:44 112 4 gusting 8 30.0
2019-May-23 17:29 022 12 gusting 14 30.0
2019-May-23 17:14 112 5 gusting 9 29.4
2019-May-23 16:59 022 8 gusting 14 30.0
2019-May-23 16:44 180 6 gusting 12 30.0
2019-May-23 16:29 180 10 gusting 13 28.9
2019-May-23 16:14 112 12 gusting 16 28.9
2019-May-23 15:59 180 8 gusting 11 28.9
2019-May-23 15:44 180 6 gusting 13 28.3
2019-May-23 15:29 180 6 gusting 9 27.8
2019-May-23 15:14 112 7 gusting 8 27.8
2019-May-23 14:59 112 9 gusting 13 27.2
2019-May-23 14:44 022 6 gusting 7 26.7
2019-May-23 14:29 022 6 gusting 8 26.1
2019-May-23 14:14 112 5 gusting 6 25.6
2019-May-23 13:59 180 6 gusting 9 25.6
2019-May-23 13:44 180 2 gusting 4 25.0
2019-May-23 13:29 022 6 gusting 9 25.0
2019-May-23 13:14 180 7 gusting 9 24.4
2019-May-23 12:59 180 5 gusting 6 24.4
2019-May-23 12:44 112 4 gusting 7 23.9
2019-May-23 12:29 180 5 gusting 6 23.3
2019-May-23 12:14 360 3 gusting 5 22.2
2019-May-23 11:59 180 3 gusting 6 22.2
2019-May-23 11:44 112 5 gusting 6 22.2
2019-May-23 11:29 022 2 gusting 3 21.7
2019-May-23 11:14 022 3 gusting 4 21.7
2019-May-23 10:59 360 3 gusting 5 21.1
2019-May-23 10:44 022 3 gusting 5 21.1
2019-May-23 10:29 360 3 gusting 4 21.1
2019-May-23 10:14 022 2 gusting 3 21.1
2019-May-23 09:59 022 2 gusting 3 21.1
2019-May-23 09:44 022 3 gusting 4 21.1
2019-May-23 09:29 180 4 gusting 5 21.1
2019-May-23 09:14 180 5 gusting 6 21.1
2019-May-23 08:59 180 4 gusting 6 21.1
2019-May-23 08:44 180 3 gusting 4 21.7
2019-May-23 08:29 112 3 gusting 4 21.7
2019-May-23 08:14 180 4 gusting 6 21.7
2019-May-23 07:59 112 2 gusting 4 21.7
2019-May-23 07:44 360 2 gusting 3 21.7
2019-May-23 07:29 022 2 gusting 3 21.7
2019-May-23 07:14 180 2 gusting 3 21.7
2019-May-23 06:59 180 3 gusting 4 22.2
2019-May-23 06:44 022 4 gusting 6 22.2
2019-May-23 06:29 180 4 gusting 5 22.2
2019-May-23 06:14 022 3 gusting 5 22.2
2019-May-23 05:59 180 3 gusting 5 22.8
2019-May-23 05:44 180 4 gusting 6 22.8
2019-May-23 05:29 180 4 gusting 5 22.8
2019-May-23 05:14 180 3 gusting 3 22.8
2019-May-23 04:59 180 4 gusting 5 22.8
2019-May-23 04:44 112 5 gusting 6 23.3
2019-May-23 04:29 180 3 gusting 5 23.9
2019-May-23 04:14 180 4 gusting 5 23.9
2019-May-23 03:59 180 5 gusting 6 23.9
2019-May-23 03:44 180 6 gusting 8 24.4
2019-May-23 03:29 112 8 gusting 11 24.4
2019-May-23 03:14 180 5 gusting 8 24.4
2019-May-23 02:59 180 7 gusting 11 25.0
2019-May-23 02:44 022 6 gusting 9 25.0
2019-May-23 02:29 180 7 gusting 10 25.6
2019-May-23 02:14 180 6 gusting 12 25.6
2019-May-23 01:59 112 10 gusting 15 25.6
2019-May-23 01:44 112 6 gusting 9 26.1
2019-May-23 01:29 022 6 gusting 9 26.7
2019-May-23 01:14 022 10 gusting 12 26.7
2019-May-23 00:59 180 7 gusting 12 27.2
2019-May-23 00:44 180 5 gusting 9 27.8
2019-May-23 00:29 180 6 gusting 9 28.3
2019-May-23 00:14 180 7 gusting 12 28.9
2019-May-22 23:59 022 10 gusting 14 28.9
2019-May-22 23:44 180 12 gusting 15 29.4
2019-May-22 23:29 180 7 gusting 10 30.0
2019-May-22 23:14 180 10 gusting 14 31.1
2019-May-22 22:59 180 6 gusting 9 31.7
2019-May-22 22:44 022 6 gusting 10 31.7
2019-May-22 22:29 022 6 gusting 9 31.7
2019-May-22 22:14 022 6 gusting 9 31.7
2019-May-22 21:59 022 9 gusting 12 31.7
2019-May-22 21:44 022 6 gusting 10 31.7
2019-May-22 21:29 180 7 gusting 13 32.2
2019-May-22 21:14 112 7 gusting 11 31.7
2019-May-22 20:59 180 2 gusting 4 32.2
2019-May-22 20:44 360 7 gusting 9 32.2
2019-May-22 20:29 112 3 gusting 5 31.7
2019-May-22 20:14 360 8 gusting 12 32.2
2019-May-22 19:59 022 4 gusting 7 32.2
2019-May-22 19:44 022 7 gusting 11 32.2
2019-May-22 19:29 022 9 gusting 13 32.2
2019-May-22 19:14 180 9 gusting 14 31.1
2019-May-22 18:59 180 6 gusting 13 31.7
2019-May-22 18:44 112 6 gusting 8 31.7
2019-May-22 18:29 022 6 gusting 9 31.7
2019-May-22 18:14 022 6 gusting 11 31.1
2019-May-22 17:59 337 5 gusting 6 31.1
2019-May-22 17:44 337 5 gusting 8 31.1
2019-May-22 17:29 360 8 gusting 10 31.7
2019-May-22 17:14 360 6 gusting 8 30.6
2019-May-22 16:59 022 4 gusting 5 30.6
2019-May-22 16:44 180 2 gusting 4 30.0
2019-May-22 16:29 112 3 gusting 3 29.4
2019-May-22 16:14 112 1 gusting 3 29.4
2019-May-22 15:59 337 4 gusting 6 29.4
2019-May-22 15:44 135 2 gusting 3 28.9
2019-May-22 15:29 180 28.9
2019-May-22 15:14 157 2 gusting 3 30.0
2019-May-22 14:59 112 2 gusting 3 27.8
2019-May-22 14:44 180 4 gusting 5 27.8
2019-May-22 14:29 112 5 gusting 6 29.4
2019-May-22 14:14 157 3 gusting 4 27.2
2019-May-22 13:59 112 4 gusting 6 27.8
2019-May-22 13:44 112 4 gusting 5 26.7
2019-May-22 13:29 112 6 gusting 8 26.1
2019-May-22 13:14 112 6 gusting 7 26.1
2019-May-22 12:59 135 5 gusting 6 25.6
2019-May-22 12:44 112 6 gusting 6 25.6
2019-May-22 12:29 112 5 gusting 6 25.0
2019-May-22 12:14 157 3 gusting 6 24.4
2019-May-22 11:59 112 4 gusting 5 23.9
2019-May-22 11:44 112 3 gusting 4 23.9
2019-May-22 11:29 112 4 gusting 5 23.9
2019-May-22 11:14 112 2 gusting 3 23.3
2019-May-22 10:59 112 3 gusting 4 23.3
2019-May-22 10:44 112 4 gusting 5 23.3
2019-May-22 10:29 112 4 gusting 5 23.3
2019-May-22 10:14 112 4 gusting 6 23.3
2019-May-22 09:59 112 4 gusting 5 23.3
2019-May-22 09:44 135 4 gusting 6 23.9
2019-May-22 09:29 112 4 gusting 6 23.9
2019-May-22 09:14 112 4 gusting 5 23.9
2019-May-22 08:59 112 4 gusting 5 23.9
2019-May-22 08:44 112 4 gusting 6 24.4
2019-May-22 08:29 112 4 gusting 6 24.4
2019-May-22 08:14 112 5 gusting 6 24.4
2019-May-22 07:59 112 6 gusting 7 24.4
2019-May-22 07:44 112 6 gusting 7 25.0
2019-May-22 07:29 112 8 gusting 9 25.0
2019-May-22 07:14 112 4 gusting 5 25.0
2019-May-22 06:59 112 6 gusting 9 25.0
2019-May-22 06:44 112 6 gusting 8 25.0
2019-May-22 06:29 112 8 gusting 12 25.0
2019-May-22 06:14 112 5 gusting 6 25.6
2019-May-22 05:59 112 10 gusting 12 25.6
2019-May-22 05:44 112 7 gusting 9 26.1
2019-May-22 05:29 135 11 gusting 12 26.1
2019-May-22 05:14 112 6 gusting 9 26.1
2019-May-22 04:59 112 9 gusting 13 26.1
2019-May-22 04:44 112 5 gusting 7 25.6
2019-May-22 04:29 112 10 gusting 13 25.6
2019-May-22 04:14 112 5 gusting 6 25.6
2019-May-22 03:59 112 5 gusting 6 26.1
2019-May-22 03:44 180 5 gusting 6 26.1
2019-May-22 03:29 180 6 gusting 7 25.6
2019-May-22 03:14 180 6 gusting 6 26.1
2019-May-22 02:59 337 0 gusting 1 26.1
2019-May-22 02:44 337 2 gusting 3 26.7
2019-May-22 02:29 247 1 gusting 1 26.7
2019-May-22 02:14 225 2 gusting 3 26.7
2019-May-22 01:59 292 4 gusting 5 26.7
2019-May-22 01:44 292 3 gusting 3 26.1
2019-May-22 01:29 292 3 gusting 3 25.6
2019-May-22 01:14 315 2 gusting 2 26.1
2019-May-22 00:59 270 2 gusting 2 25.0
2019-May-22 00:44 247 3 gusting 3 25.0
2019-May-22 00:29 337 0 gusting 2 24.4
2019-May-22 00:14 315 2 gusting 2 24.4